• Join FlightAware (Why Join?)
  • Login
  • US Flag 
03:50AM EDT


 

Airport Tracker/Info


-or-


 

Live Flight TrackerFlight Track Log ✈ DAL3606 ✈ 14-Dec-2013 ✈ KMSP - KCWA

Flight Track Log - Related Links

Times and Time Zones

All times are in EST time to prevent confusion due to time zone crossing. See the DAL3606 flight status page for this flight to view local times or setup timezone preferences in your user account.

Time Position Orientation Groundspeed Altitude Reporting Facility
EST Latitude Longitude Course Direction KTS MPH feet Rate Location/Type
03:19PM 44.9333 -93.2567 69° East 191 220 4,100  Level Minneapolis Center
03:20PM 44.9972 -93.2758 348° North 233 268 6,400 2,340 Climbing Minneapolis Center
03:21PM 45.0450 -93.1919 51° Northeast 292 336 8,900 2,340 Climbing Minneapolis Center
03:22PM 45.0853 -93.0547 67° East 313 360 11,200 2,280 Climbing Minneapolis Center
03:23PM 45.1214 -92.9289 68° East 340 391 13,600 2,040 Climbing Minneapolis Center
03:24PM 44.8718 -92.6047 69° East  Level Estimated
03:24PM 45.1583 -92.8006 68° East 351 404 15,400  Level Minneapolis Center
03:25PM 45.1964 -92.6650 68° East 367 422 17,000 780 Climbing Minneapolis Center
03:26PM 45.2383 -92.5194 68° East 398 458 17,100  Climbing Minneapolis Center
03:27PM 45.2831 -92.3625 68° East 427 491 17,000 -60 Descending Minneapolis Center
03:28PM 45.2864 -92.1944 88° East 442 509 17,000  Level Minneapolis Center
03:29PM 45.2536 -92.0239 105° East 446 513 17,000  Level Minneapolis Center
03:30PM 45.2208 -91.8553 105° East 445 512 17,000  Level Minneapolis Center
03:31PM 45.1875 -91.6867 106° East 444 511 17,000  Level Minneapolis Center
03:32PM 45.1542 -91.5156 105° East 448 516 17,000  Level Minneapolis Center
03:33PM 45.1214 -91.3450 105° East 449 517 17,000 -420 Level Minneapolis Center
03:34PM 45.0858 -91.1708 106° East 447 514 16,200 -1,620 Descending Minneapolis Center
03:35PM 45.0503 -90.9994 106° East 404 465 13,800 -1,920 Descending Minneapolis Center
03:36PM 45.0275 -90.8794 105° East 387 445 12,300 -1,380 Descending Minneapolis Center
03:37PM 44.9953 -90.7150 105° East 369 425 11,000 -1,320 Descending Minneapolis Center
03:38PM 44.9700 -90.5889 106° East 336 387 9,700 -1,560 Descending Minneapolis Center
03:39PM 44.9331 -90.4936 119° Southeast 301 346 7,900 -1,380 Descending Minneapolis Center
03:40PM 44.8703 -90.4208 141° Southeast 281 323 7,000 -480 Descending Minneapolis Center
03:41PM 44.8194 -90.3342 130° Southeast 282 325 7,000  Level Minneapolis Center
03:42PM 44.7836 -90.2428 119° Southeast 280 322 7,000 -840 Level Minneapolis Center
03:43PM 44.7425 -90.1469 121° Southeast 274 315 5,300 -1,500 Descending Minneapolis Center
03:44PM 44.7200 -90.0481 108° East 259 298 4,000 -1,140 Descending Minneapolis Center
03:46PM 44.7350 -89.9553 77° East 251 289 3,000 -540 Descending Minneapolis Center
03:47PM 44.7497 -89.8647 77° East 233 268 3,000  Level Minneapolis Center
03:48PM 44.7589 -89.8019 78° East 180 207 3,000 -360 Level Minneapolis Center
03:49PM 44.7703 -89.7322 77° East 175 201 2,300 -480 Descending Minneapolis Center
03:50PM 44.7797 -89.6756 77° East 171 197 2,100 -240 Descending Minneapolis Center